createdAt,value
2018-09-22T00:00:07.482Z,1012.22
2018-09-22T00:01:07.474Z,1012.19
2018-09-22T00:02:07.455Z,1012.18
2018-09-22T00:03:07.488Z,1012.17
2018-09-22T00:04:07.451Z,1012.17
2018-09-22T00:05:07.428Z,1012.16
2018-09-22T00:06:07.418Z,1012.12
2018-09-22T00:07:07.402Z,1012.15
2018-09-22T00:08:07.419Z,1012.10
2018-09-22T00:09:07.430Z,1012.11
2018-09-22T00:10:07.372Z,1012.13
2018-09-22T00:11:07.364Z,1012.07
2018-09-22T00:12:07.352Z,1012.15
2018-09-22T00:13:07.375Z,1012.15
2018-09-22T00:14:07.327Z,1012.15
2018-09-22T00:15:07.359Z,1012.18
2018-09-22T00:16:07.315Z,1012.15
2018-09-22T00:17:07.295Z,1012.24
2018-09-22T00:18:07.331Z,1012.22
2018-09-22T00:19:07.312Z,1012.22
2018-09-22T00:20:07.264Z,1012.25
2018-09-22T00:21:07.253Z,1012.30
2018-09-22T00:22:07.281Z,1012.36
2018-09-22T00:23:07.264Z,1012.38
2018-09-22T00:24:07.229Z,1012.37
2018-09-22T00:25:07.216Z,1012.38
2018-09-22T00:26:07.199Z,1012.35
2018-09-22T00:27:07.200Z,1012.38
2018-09-22T00:28:07.180Z,1012.37
2018-09-22T00:29:07.228Z,1012.37
2018-09-22T00:30:07.173Z,1012.42
2018-09-22T00:31:07.148Z,1012.40
2018-09-22T00:32:07.173Z,1012.44
2018-09-22T00:33:07.121Z,1012.40
2018-09-22T00:34:07.133Z,1012.39
2018-09-22T00:35:07.103Z,1012.52
2018-09-22T00:36:07.108Z,1012.57
2018-09-22T00:37:07.095Z,1012.52
2018-09-22T00:38:07.093Z,1012.60
2018-09-22T00:39:07.096Z,1012.58
2018-09-22T00:40:07.059Z,1012.57
2018-09-22T00:41:07.035Z,1012.60
2018-09-22T00:42:07.037Z,1012.57
2018-09-22T00:43:07.017Z,1012.58
2018-09-22T00:44:07.025Z,1012.60
2018-09-22T00:45:06.993Z,1012.55
2018-09-22T00:46:06.985Z,1012.58
2018-09-22T00:47:06.971Z,1012.59
2018-09-22T00:48:07.013Z,1012.54
2018-09-22T00:49:06.997Z,1012.51
2018-09-22T00:50:06.937Z,1012.49
2018-09-22T00:51:06.933Z,1012.60
2018-09-22T00:52:06.921Z,1012.61
2018-09-22T00:53:06.905Z,1012.65
2018-09-22T00:54:06.924Z,1012.64
2018-09-22T00:55:06.922Z,1012.64
2018-09-22T00:56:06.877Z,1012.69
2018-09-22T00:57:06.878Z,1012.66
2018-09-22T00:58:06.884Z,1012.66
2018-09-22T00:59:06.906Z,1012.67
2018-09-22T01:00:06.840Z,1012.63
2018-09-22T01:01:06.851Z,1012.65
2018-09-22T01:02:06.828Z,1012.65
2018-09-22T01:03:06.795Z,1012.68
2018-09-22T01:04:06.824Z,1012.69
2018-09-22T01:05:06.778Z,1012.71
2018-09-22T01:06:06.770Z,1012.72
2018-09-22T01:07:06.757Z,1012.74
2018-09-22T01:08:06.765Z,1012.73
2018-09-22T01:09:06.762Z,1012.74
2018-09-22T01:10:06.772Z,1012.76
2018-09-22T01:11:06.712Z,1012.82
2018-09-22T01:12:06.698Z,1012.82
2018-09-22T01:13:06.689Z,1012.82
2018-09-22T01:14:06.715Z,1012.83
2018-09-22T01:15:06.672Z,1012.81
2018-09-22T01:16:06.667Z,1012.82
2018-09-22T01:17:06.656Z,1012.80
2018-09-22T01:18:06.651Z,1012.81
2018-09-22T01:19:06.680Z,1012.81
2018-09-22T01:20:06.613Z,1012.77
2018-09-22T01:21:06.600Z,1012.74
2018-09-22T01:22:06.594Z,1012.80
2018-09-22T01:23:06.586Z,1012.84
2018-09-22T01:24:06.601Z,1012.87
2018-09-22T01:25:06.566Z,1012.88
2018-09-22T01:26:06.559Z,1012.84
2018-09-22T01:27:06.540Z,1012.87
2018-09-22T01:28:06.530Z,1012.87
2018-09-22T01:29:06.543Z,1012.90
2018-09-22T01:30:06.518Z,1012.94
2018-09-22T01:31:06.505Z,1012.90
2018-09-22T01:32:06.485Z,1012.89
2018-09-22T01:33:06.473Z,1012.92
2018-09-22T01:34:06.488Z,1012.95
2018-09-22T01:35:06.448Z,1013.00
2018-09-22T01:36:06.465Z,1013.04
2018-09-22T01:37:06.427Z,1013.04
2018-09-22T01:38:06.426Z,1013.08
2018-09-22T01:39:06.430Z,1013.10
2018-09-22T01:40:06.396Z,1013.06
2018-09-22T01:41:06.385Z,1013.02
2018-09-22T01:42:06.377Z,1013.10
2018-09-22T01:43:06.365Z,1013.12
2018-09-22T01:44:06.377Z,1013.13
2018-09-22T01:45:06.341Z,1013.16
2018-09-22T01:46:06.330Z,1013.13
2018-09-22T01:47:06.332Z,1013.11
2018-09-22T01:48:06.337Z,1013.17
2018-09-22T01:49:06.327Z,1013.15
2018-09-22T01:50:06.289Z,1013.15
2018-09-22T01:51:06.285Z,1013.17
2018-09-22T01:52:06.266Z,1013.24
2018-09-22T01:53:06.263Z,1013.27
2018-09-22T01:54:06.296Z,1013.30
2018-09-22T01:55:06.235Z,1013.27
2018-09-22T01:56:06.222Z,1013.33
2018-09-22T01:57:06.232Z,1013.29
2018-09-22T01:58:06.197Z,1013.28
2018-09-22T01:59:06.237Z,1013.25
2018-09-22T02:00:06.204Z,1013.28
2018-09-22T02:01:06.172Z,1013.29
2018-09-22T02:02:06.210Z,1013.29
2018-09-22T02:03:06.164Z,1013.26
2018-09-22T02:04:06.174Z,1013.26
2018-09-22T02:05:06.121Z,1013.23
2018-09-22T02:06:06.118Z,1013.24
2018-09-22T02:07:06.104Z,1013.24
2018-09-22T02:08:06.089Z,1013.19
2018-09-22T02:09:06.107Z,1013.15
2018-09-22T02:10:06.092Z,1013.14
2018-09-22T02:11:06.053Z,1013.14
2018-09-22T02:12:06.044Z,1013.17
2018-09-22T02:13:06.033Z,1013.17
2018-09-22T02:14:06.053Z,1013.19
2018-09-22T02:15:06.025Z,1013.17
2018-09-22T02:16:06.016Z,1013.16
2018-09-22T02:17:05.998Z,1013.12
2018-09-22T02:18:05.973Z,1013.11
2018-09-22T02:19:05.962Z,1013.08
2018-09-22T02:20:06.005Z,1013.12
2018-09-22T02:21:05.941Z,1013.10
2018-09-22T02:22:05.934Z,1013.18
2018-09-22T02:23:05.943Z,1013.18
2018-09-22T02:24:05.910Z,1013.29
2018-09-22T02:25:05.930Z,1013.24
2018-09-22T02:26:05.890Z,1013.24
2018-09-22T02:27:05.877Z,1013.21
2018-09-22T02:28:05.872Z,1013.25
2018-09-22T02:29:05.862Z,1013.24
2018-09-22T02:30:05.878Z,1013.27
2018-09-22T02:31:05.832Z,1013.35
2018-09-22T02:32:05.826Z,1013.28
2018-09-22T02:33:05.830Z,1013.30
2018-09-22T02:34:05.802Z,1013.34
2018-09-22T02:35:05.790Z,1013.36
2018-09-22T02:36:05.802Z,1013.35
2018-09-22T02:37:05.764Z,1013.34
2018-09-22T02:38:05.762Z,1013.36
2018-09-22T02:39:05.743Z,1013.40
2018-09-22T02:40:05.732Z,1013.49
2018-09-22T02:41:05.783Z,1013.53
2018-09-22T02:42:05.721Z,1013.49
2018-09-22T02:43:05.702Z,1013.43
2018-09-22T02:44:05.688Z,1013.42
2018-09-22T02:45:05.679Z,1013.43
2018-09-22T02:46:05.667Z,1013.45
2018-09-22T02:47:05.733Z,1013.48
2018-09-22T02:48:05.647Z,1013.46
2018-09-22T02:49:05.634Z,1013.44
2018-09-22T02:50:05.626Z,1013.47
2018-09-22T02:51:05.609Z,1013.47
2018-09-22T02:52:05.625Z,1013.51
2018-09-22T02:53:05.597Z,1013.50
2018-09-22T02:54:05.582Z,1013.55
2018-09-22T02:55:05.575Z,1013.50
2018-09-22T02:56:05.578Z,1013.47
2018-09-22T02:57:05.584Z,1013.47
2018-09-22T02:58:05.533Z,1013.40
2018-09-22T02:59:05.524Z,1013.35
2018-09-22T03:00:05.513Z,1013.37
2018-09-22T03:01:05.508Z,1013.36
2018-09-22T03:02:05.495Z,1013.37
2018-09-22T03:03:05.502Z,1013.32
2018-09-22T03:04:05.477Z,1013.38
2018-09-22T03:05:05.461Z,1013.39
2018-09-22T03:06:05.447Z,1013.40
2018-09-22T03:07:05.437Z,1013.32
2018-09-22T03:08:05.461Z,1013.35
2018-09-22T03:09:05.424Z,1013.37
2018-09-22T03:10:05.417Z,1013.38
2018-09-22T03:11:05.396Z,1013.43
2018-09-22T03:12:05.380Z,1013.51
2018-09-22T03:13:05.369Z,1013.56
2018-09-22T03:14:05.396Z,1013.61
2018-09-22T03:15:05.358Z,1013.51
2018-09-22T03:16:05.351Z,1013.44
2018-09-22T03:17:05.337Z,1013.43
2018-09-22T03:18:05.332Z,1013.53
2018-09-22T03:19:05.338Z,1013.59
2018-09-22T03:20:05.316Z,1013.59
2018-09-22T03:21:05.283Z,1013.52
2018-09-22T03:22:05.278Z,1013.53
2018-09-22T03:23:05.273Z,1013.53
2018-09-22T03:24:05.294Z,1013.62
2018-09-22T03:25:05.294Z,1013.57
2018-09-22T03:26:05.233Z,1013.53
2018-09-22T03:27:05.219Z,1013.51
2018-09-22T03:28:05.208Z,1013.53
2018-09-22T03:29:05.243Z,1013.50
2018-09-22T03:30:05.209Z,1013.46
2018-09-22T03:31:05.177Z,1013.50
2018-09-22T03:32:05.171Z,1013.46
2018-09-22T03:33:05.151Z,1013.50
2018-09-22T03:34:05.146Z,1013.51
2018-09-22T03:35:05.201Z,1013.53
2018-09-22T03:36:05.124Z,1013.58
2018-09-22T03:37:05.111Z,1013.55
2018-09-22T03:38:05.114Z,1013.60
2018-09-22T03:39:05.099Z,1013.55
2018-09-22T03:40:05.089Z,1013.61
2018-09-22T03:41:05.107Z,1013.60
2018-09-22T03:42:05.077Z,1013.63
2018-09-22T03:43:05.043Z,1013.66
2018-09-22T03:44:05.039Z,1013.66
2018-09-22T03:45:05.024Z,1013.64
2018-09-22T03:46:05.020Z,1013.60
2018-09-22T03:47:05.026Z,1013.61
2018-09-22T03:48:04.992Z,1013.56
2018-09-22T03:49:04.978Z,1013.54
2018-09-22T03:50:04.972Z,1013.52
2018-09-22T03:51:04.958Z,1013.56
2018-09-22T03:52:04.993Z,1013.55
2018-09-22T03:53:04.940Z,1013.59
2018-09-22T03:54:04.927Z,1013.64
2018-09-22T03:55:04.913Z,1013.62
2018-09-22T03:56:04.901Z,1013.66
2018-09-22T03:57:04.923Z,1013.66
2018-09-22T03:58:04.880Z,1013.64
2018-09-22T03:59:04.884Z,1013.65
2018-09-22T04:00:04.859Z,1013.65
2018-09-22T04:01:04.846Z,1013.62
2018-09-22T04:02:04.843Z,1013.61
2018-09-22T04:03:04.852Z,1013.57
2018-09-22T04:04:04.838Z,1013.57
2018-09-22T04:05:04.819Z,1013.54
2018-09-22T04:06:04.791Z,1013.53
2018-09-22T04:07:04.782Z,1013.60
2018-09-22T04:08:04.775Z,1013.60
2018-09-22T04:09:04.787Z,1013.59
2018-09-22T04:10:04.760Z,1013.59
2018-09-22T04:11:04.737Z,1013.54
2018-09-22T04:12:04.734Z,1013.49
2018-09-22T04:13:04.716Z,1013.57
2018-09-22T04:14:04.736Z,1013.54
2018-09-22T04:15:04.695Z,1013.50
2018-09-22T04:16:04.694Z,1013.51
2018-09-22T04:17:04.674Z,1013.46
2018-09-22T04:18:04.669Z,1013.47
2018-09-22T04:19:04.675Z,1013.51
2018-09-22T04:20:04.645Z,1013.53
2018-09-22T04:21:04.633Z,1013.56
2018-09-22T04:22:04.633Z,1013.55
2018-09-22T04:23:04.608Z,1013.55
2018-09-22T04:24:04.607Z,1013.56
2018-09-22T04:25:04.609Z,1013.63
2018-09-22T04:26:04.574Z,1013.64
2018-09-22T04:27:04.566Z,1013.64
2018-09-22T04:28:04.593Z,1013.65
2018-09-22T04:29:04.542Z,1013.63
2018-09-22T04:30:04.570Z,1013.61
2018-09-22T04:31:04.524Z,1013.59
2018-09-22T04:32:04.515Z,1013.62
2018-09-22T04:33:04.507Z,1013.55
2018-09-22T04:34:04.508Z,1013.56
2018-09-22T04:35:04.477Z,1013.59
2018-09-22T04:36:04.489Z,1013.60
2018-09-22T04:37:04.463Z,1013.64
2018-09-22T04:38:04.444Z,1013.70
2018-09-22T04:39:04.435Z,1013.69
2018-09-22T04:40:04.430Z,1013.74
2018-09-22T04:41:04.446Z,1013.79
2018-09-22T04:42:04.408Z,1013.85
2018-09-22T04:43:04.389Z,1013.79
2018-09-22T04:44:04.382Z,1013.75
2018-09-22T04:45:04.367Z,1013.74
2018-09-22T04:46:04.392Z,1013.77
2018-09-22T04:47:04.348Z,1013.84
2018-09-22T04:48:04.346Z,1013.91
2018-09-22T04:49:04.330Z,1013.90
2018-09-22T04:50:04.316Z,1013.88
2018-09-22T04:51:04.323Z,1013.92
2018-09-22T04:52:04.387Z,1013.90
2018-09-22T04:53:04.299Z,1013.88
2018-09-22T04:54:04.273Z,1013.91
2018-09-22T04:55:04.264Z,1013.85
2018-09-22T04:56:04.249Z,1013.80
2018-09-22T04:57:04.274Z,1013.91
2018-09-22T04:58:04.246Z,1013.92
2018-09-22T04:59:04.218Z,1013.92
2018-09-22T05:00:04.206Z,1013.94
2018-09-22T05:01:04.195Z,1013.96
2018-09-22T05:02:04.185Z,1013.95
2018-09-22T05:03:04.202Z,1014.01
2018-09-22T05:04:04.184Z,1014.09
2018-09-22T05:05:04.156Z,1014.06
2018-09-22T05:06:04.142Z,1014.12
2018-09-22T05:07:04.130Z,1014.12
2018-09-22T05:08:04.149Z,1014.15
2018-09-22T05:09:04.133Z,1014.15
2018-09-22T05:10:04.100Z,1014.12
2018-09-22T05:11:04.117Z,1014.07
2018-09-22T05:12:04.077Z,1014.08
2018-09-22T05:13:04.094Z,1014.10
2018-09-22T05:14:04.067Z,1014.13
2018-09-22T05:15:04.050Z,1014.16
2018-09-22T05:16:04.055Z,1014.16
2018-09-22T05:17:04.043Z,1014.20
2018-09-22T05:18:04.015Z,1014.17
2018-09-22T05:19:04.029Z,1014.17
2018-09-22T05:20:04.015Z,1014.20
2018-09-22T05:21:03.982Z,1014.21
2018-09-22T05:22:03.972Z,1014.18
2018-09-22T05:23:03.964Z,1014.21
2018-09-22T05:24:04.005Z,1014.27
2018-09-22T05:25:03.959Z,1014.29
2018-09-22T05:26:03.933Z,1014.32
2018-09-22T05:27:03.937Z,1014.29
2018-09-22T05:28:03.906Z,1014.36
2018-09-22T05:29:03.893Z,1014.36
2018-09-22T05:30:03.908Z,1014.33
2018-09-22T05:31:03.873Z,1014.37
2018-09-22T05:32:03.871Z,1014.41
2018-09-22T05:33:03.851Z,1014.40
2018-09-22T05:34:03.838Z,1014.39
2018-09-22T05:35:03.853Z,1014.42
2018-09-22T05:36:03.827Z,1014.41
2018-09-22T05:37:03.824Z,1014.44
2018-09-22T05:38:03.822Z,1014.44
2018-09-22T05:39:03.787Z,1014.41
2018-09-22T05:40:03.810Z,1014.46
2018-09-22T05:41:03.766Z,1014.44
2018-09-22T05:42:03.753Z,1014.48
2018-09-22T05:43:03.744Z,1014.53
2018-09-22T05:44:03.737Z,1014.53
2018-09-22T05:45:03.722Z,1014.58
2018-09-22T05:46:03.731Z,1014.61
2018-09-22T05:47:03.729Z,1014.62
2018-09-22T05:48:03.687Z,1014.63
2018-09-22T05:49:03.676Z,1014.69
2018-09-22T05:50:03.679Z,1014.72
2018-09-22T05:51:03.705Z,1014.78
2018-09-22T05:52:03.646Z,1014.82
2018-09-22T05:53:03.640Z,1014.83
2018-09-22T05:54:03.625Z,1014.84
2018-09-22T05:55:03.613Z,1014.86
2018-09-22T05:56:03.618Z,1014.73
2018-09-22T05:57:03.619Z,1014.66
2018-09-22T05:58:03.596Z,1014.64
2018-09-22T05:59:03.577Z,1014.65
2018-09-22T06:00:03.571Z,1014.74
2018-09-22T06:01:03.552Z,1014.73
2018-09-22T06:02:03.605Z,1014.81
2018-09-22T06:03:03.524Z,1014.83
2018-09-22T06:04:03.552Z,1014.82
2018-09-22T06:05:03.502Z,1014.78
2018-09-22T06:06:03.494Z,1014.73
2018-09-22T06:07:03.480Z,1014.66
2018-09-22T06:08:03.498Z,1014.69
2018-09-22T06:09:03.459Z,1014.67
2018-09-22T06:10:03.448Z,1014.71
2018-09-22T06:11:03.439Z,1014.70
2018-09-22T06:12:03.426Z,1014.69
2018-09-22T06:13:03.470Z,1014.72
2018-09-22T06:14:03.403Z,1014.72
2018-09-22T06:15:03.393Z,1014.70
2018-09-22T06:16:03.399Z,1014.64
2018-09-22T06:17:03.371Z,1014.67
2018-09-22T06:18:03.389Z,1014.67
2018-09-22T06:19:03.354Z,1014.68
2018-09-22T06:20:03.342Z,1014.68
2018-09-22T06:21:03.329Z,1014.67
2018-09-22T06:22:03.323Z,1014.62
2018-09-22T06:23:03.374Z,1014.68
2018-09-22T06:24:03.323Z,1014.70
2018-09-22T06:25:03.283Z,1014.62
2018-09-22T06:26:03.273Z,1014.69
2018-09-22T06:27:03.260Z,1014.70
2018-09-22T06:28:03.278Z,1014.78
2018-09-22T06:29:03.251Z,1014.81
2018-09-22T06:30:03.263Z,1014.83
2018-09-22T06:31:03.217Z,1014.79
2018-09-22T06:32:03.206Z,1014.75
2018-09-22T06:33:03.197Z,1014.78
2018-09-22T06:34:03.184Z,1014.85
2018-09-22T06:35:03.211Z,1014.81
2018-09-22T06:36:03.184Z,1014.81
2018-09-22T06:37:03.151Z,1014.74
2018-09-22T06:38:03.139Z,1014.73
2018-09-22T06:39:03.129Z,1014.65
2018-09-22T06:40:03.148Z,1014.67
2018-09-22T06:41:03.109Z,1014.62
2018-09-22T06:42:03.108Z,1014.60
2018-09-22T06:43:03.091Z,1014.59
2018-09-22T06:44:03.076Z,1014.55
2018-09-22T06:45:03.099Z,1014.52
2018-09-22T06:46:03.073Z,1014.48
2018-09-22T06:47:03.042Z,1014.45
2018-09-22T06:48:03.032Z,1014.46
2018-09-22T06:49:03.065Z,1014.43
2018-09-22T06:50:03.018Z,1014.47
2018-09-22T06:51:03.032Z,1014.42
2018-09-22T06:52:02.988Z,1014.39
2018-09-22T06:53:02.978Z,1014.36
2018-09-22T06:54:02.973Z,1014.35
2018-09-22T06:55:02.957Z,1014.33
2018-09-22T06:56:02.990Z,1014.32
2018-09-22T06:57:02.962Z,1014.37
2018-09-22T06:58:02.929Z,1014.41
2018-09-22T06:59:02.927Z,1014.41
2018-09-22T07:00:02.912Z,1014.42
2018-09-22T07:01:02.900Z,1014.41
2018-09-22T07:02:02.906Z,1014.44
2018-09-22T07:03:02.872Z,1014.45
2018-09-22T07:04:02.882Z,1014.43
2018-09-22T07:05:02.848Z,1014.46
2018-09-22T07:06:02.836Z,1014.45
2018-09-22T07:07:02.859Z,1014.43
2018-09-22T07:08:02.820Z,1014.48
2018-09-22T07:09:02.821Z,1014.49
2018-09-22T07:10:02.801Z,1014.59
2018-09-22T07:11:02.785Z,1014.65
2018-09-22T07:12:02.778Z,1014.72
2018-09-22T07:13:02.794Z,1014.69
2018-09-22T07:14:02.751Z,1014.73
2018-09-22T07:15:02.748Z,1014.70
2018-09-22T07:16:02.737Z,1014.71
2018-09-22T07:17:02.741Z,1014.64
2018-09-22T07:18:02.707Z,1014.61
2018-09-22T07:19:02.751Z,1014.56
2018-09-22T07:20:02.685Z,1014.59
2018-09-22T07:21:02.677Z,1014.55
2018-09-22T07:22:02.666Z,1014.58
2018-09-22T07:23:02.658Z,1014.58
2018-09-22T07:24:02.673Z,1014.62
2018-09-22T07:25:02.631Z,1014.64
2018-09-22T07:26:02.636Z,1014.70
2018-09-22T07:27:02.607Z,1014.71
2018-09-22T07:28:02.601Z,1014.74
2018-09-22T07:29:02.586Z,1014.68
2018-09-22T07:30:02.616Z,1014.72
2018-09-22T07:31:02.570Z,1014.77
2018-09-22T07:32:02.558Z,1014.81
2018-09-22T07:33:02.543Z,1014.79
2018-09-22T07:34:02.533Z,1014.83
2018-09-22T07:35:02.563Z,1014.89
2018-09-22T07:36:02.510Z,1014.86
2018-09-22T07:37:02.498Z,1014.81
2018-09-22T07:38:02.500Z,1014.83
2018-09-22T07:39:02.482Z,1014.86
2018-09-22T07:40:02.475Z,1014.90
2018-09-22T07:41:02.484Z,1014.93
2018-09-22T07:42:02.450Z,1014.91
2018-09-22T07:43:02.431Z,1014.87
2018-09-22T07:44:02.427Z,1014.87
2018-09-22T07:45:02.415Z,1014.91
2018-09-22T07:46:02.433Z,1014.95
2018-09-22T07:47:02.389Z,1014.88
2018-09-22T07:48:02.408Z,1014.88
2018-09-22T07:49:02.365Z,1014.96
2018-09-22T07:50:02.360Z,1015.01
2018-09-22T07:51:02.369Z,1015.00
2018-09-22T07:52:02.333Z,1014.99
2018-09-22T07:53:02.348Z,1015.00
2018-09-22T07:54:02.315Z,1015.04
2018-09-22T07:55:02.302Z,1015.07
2018-09-22T07:56:02.327Z,1015.13
2018-09-22T07:57:02.304Z,1015.13
2018-09-22T07:58:02.269Z,1015.15
2018-09-22T07:59:02.281Z,1015.10
2018-09-22T08:00:02.249Z,1015.11
2018-09-22T08:01:02.273Z,1015.05
2018-09-22T08:02:02.225Z,1015.05
2018-09-22T08:03:02.212Z,1015.07
2018-09-22T08:04:02.218Z,1015.08
2018-09-22T08:05:02.211Z,1015.06
2018-09-22T08:06:02.218Z,1015.07
2018-09-22T08:07:02.169Z,1015.08
2018-09-22T08:08:02.225Z,1015.06
2018-09-22T08:09:02.146Z,1015.03
2018-09-22T08:10:02.136Z,1014.97
2018-09-22T08:12:02.136Z,1014.97
2018-09-22T08:13:02.111Z,1014.99
2018-09-22T08:14:02.093Z,1014.97
2018-09-22T08:15:02.090Z,1014.98
2018-09-22T08:16:02.104Z,1014.96
2018-09-22T08:17:02.123Z,1014.98
2018-09-22T08:18:02.054Z,1014.91
2018-09-22T08:19:02.040Z,1014.93
2018-09-22T08:20:02.033Z,1014.95
2018-09-22T08:21:02.089Z,1014.97
2018-09-22T08:22:02.033Z,1014.98
2018-09-22T08:23:02.002Z,1015.03
2018-09-22T08:24:01.995Z,1015.12
2018-09-22T08:25:02.019Z,1015.09
2018-09-22T08:26:01.964Z,1015.10
2018-09-22T08:27:02.031Z,1015.05
2018-09-22T08:28:01.985Z,1015.03
2018-09-22T08:29:01.948Z,1015.05
2018-09-22T08:30:01.942Z,1015.09
2018-09-22T08:31:01.905Z,1015.11
2018-09-22T08:32:01.910Z,1015.17
2018-09-22T08:33:01.922Z,1015.13
2018-09-22T08:34:01.905Z,1015.14
2018-09-22T08:35:01.916Z,1015.14
2018-09-22T08:36:01.938Z,1015.16
2018-09-22T08:37:02.037Z,1015.18
2018-09-22T08:38:01.829Z,1015.16
2018-09-22T08:39:02.471Z,1015.15
2018-09-22T08:40:01.811Z,1015.13
2018-09-22T08:41:01.802Z,1015.09
2018-09-22T08:42:01.819Z,1015.04
2018-09-22T08:43:01.788Z,1014.93
2018-09-22T08:44:01.870Z,1014.94
2018-09-22T08:45:01.795Z,1014.93
2018-09-22T08:46:01.743Z,1014.87
2018-09-22T08:47:01.738Z,1014.87
2018-09-22T08:48:01.720Z,1014.80
2018-09-22T08:49:01.736Z,1014.79
2018-09-22T08:50:01.739Z,1014.73
2018-09-22T08:51:01.753Z,1014.75
2018-09-22T08:52:01.676Z,1014.72
2018-09-22T08:53:01.698Z,1014.69
2018-09-22T08:54:01.701Z,1014.74
2018-09-22T08:55:01.643Z,1014.73
2018-09-22T08:56:01.645Z,1014.77
2018-09-22T08:57:01.628Z,1014.83
2018-09-22T08:58:01.738Z,1014.86
2018-09-22T08:59:01.641Z,1014.97
2018-09-22T09:00:01.599Z,1014.96
2018-09-22T09:01:01.637Z,1014.98
2018-09-22T09:02:01.587Z,1014.96
2018-09-22T09:03:01.617Z,1014.95
2018-09-22T09:04:01.640Z,1014.91
2018-09-22T09:05:01.615Z,1014.90
2018-09-22T09:06:01.560Z,1014.89
2018-09-22T09:07:01.518Z,1014.82
2018-09-22T09:08:01.528Z,1014.81
2018-09-22T09:09:01.526Z,1014.73
2018-09-22T09:10:01.531Z,1014.65
2018-09-22T09:11:01.500Z,1014.57
2018-09-22T09:12:01.466Z,1014.54
2018-09-22T09:13:01.504Z,1014.55
2018-09-22T09:14:01.505Z,1014.62
2018-09-22T09:15:01.441Z,1014.67
2018-09-22T09:16:01.446Z,1014.66
2018-09-22T09:17:01.459Z,1014.68
2018-09-22T09:18:01.405Z,1014.65
2018-09-22T09:19:01.390Z,1014.63
2018-09-22T09:20:01.374Z,1014.57
2018-09-22T09:21:01.401Z,1014.50
2018-09-22T09:22:01.351Z,1014.51
2018-09-22T09:23:01.349Z,1014.48
2018-09-22T09:24:01.330Z,1014.47
2018-09-22T09:25:01.326Z,1014.42
2018-09-22T09:26:01.338Z,1014.45
2018-09-22T09:27:01.315Z,1014.48
2018-09-22T09:28:01.301Z,1014.49
2018-09-22T09:29:01.283Z,1014.46
2018-09-22T09:30:01.264Z,1014.55
2018-09-22T09:31:01.252Z,1014.52
2018-09-22T09:32:01.281Z,1014.49
2018-09-22T09:33:01.230Z,1014.50
2018-09-22T09:34:01.218Z,1014.54
2018-09-22T09:35:01.227Z,1014.61
2018-09-22T09:36:01.201Z,1014.67
2018-09-22T09:37:01.208Z,1014.63
2018-09-22T09:38:01.202Z,1014.63
2018-09-22T09:39:01.164Z,1014.71
2018-09-22T09:40:01.161Z,1014.65
2018-09-22T09:41:01.142Z,1014.61
2018-09-22T09:42:01.139Z,1014.61
2018-09-22T09:43:01.142Z,1014.65
2018-09-22T09:44:01.109Z,1014.62
2018-09-22T09:45:01.096Z,1014.60
2018-09-22T09:46:01.085Z,1014.57
2018-09-22T09:47:01.086Z,1014.54
2018-09-22T09:48:01.104Z,1014.51
2018-09-22T09:49:01.053Z,1014.46
2018-09-22T09:50:01.058Z,1014.34
2018-09-22T09:51:01.065Z,1014.35
2018-09-22T09:52:01.021Z,1014.32
2018-09-22T09:53:01.060Z,1014.28
2018-09-22T09:54:01.003Z,1014.21
2018-09-22T09:55:01.071Z,1014.24
2018-09-22T09:56:00.978Z,1014.22
2018-09-22T09:57:00.971Z,1014.21
2018-09-22T09:58:00.956Z,1014.17
2018-09-22T09:59:00.999Z,1014.15
2018-09-22T10:00:00.953Z,1014.18
2018-09-22T10:01:00.922Z,1014.13
2018-09-22T10:02:00.918Z,1014.07
2018-09-22T10:03:00.923Z,1014.09
2018-09-22T10:04:00.917Z,1014.04
2018-09-22T10:05:00.882Z,1014.08
2018-09-22T10:06:00.880Z,1014.07
2018-09-22T10:07:00.880Z,1014.09
2018-09-22T10:08:00.869Z,1014.07
2018-09-22T10:09:00.881Z,1014.13
2018-09-22T10:10:00.829Z,1014.06
2018-09-22T10:11:00.818Z,1014.04
2018-09-22T10:12:00.808Z,1013.99
2018-09-22T10:13:00.812Z,1013.99
2018-09-22T10:14:00.795Z,1013.96
2018-09-22T10:15:00.803Z,1013.96
2018-09-22T10:16:00.786Z,1013.97
2018-09-22T10:17:00.749Z,1013.94
2018-09-22T10:18:00.738Z,1013.92
2018-09-22T10:19:00.795Z,1013.91
2018-09-22T10:20:00.842Z,1013.89
2018-09-22T10:21:00.792Z,1013.97
2018-09-22T10:22:00.697Z,1013.95
2018-09-22T10:23:00.709Z,1013.86
2018-09-22T10:24:00.676Z,1013.94
2018-09-22T10:25:00.708Z,1013.94
2018-09-22T10:26:00.663Z,1013.93
2018-09-22T10:27:00.646Z,1013.92
2018-09-22T10:28:00.676Z,1013.95
2018-09-22T10:29:00.628Z,1013.93
2018-09-22T10:30:00.609Z,1013.94
2018-09-22T10:31:00.641Z,1013.86
2018-09-22T10:32:00.583Z,1013.82
2018-09-22T10:33:00.572Z,1013.84
2018-09-22T10:34:00.574Z,1013.87
2018-09-22T10:35:00.584Z,1013.83
2018-09-22T10:36:00.557Z,1013.87
2018-09-22T10:37:00.528Z,1013.83
2018-09-22T10:38:00.533Z,1013.79
2018-09-22T10:39:00.510Z,1013.81
2018-09-22T10:40:00.495Z,1013.82
2018-09-22T10:41:00.508Z,1013.79
2018-09-22T10:42:00.508Z,1013.76
2018-09-22T10:43:00.481Z,1013.73
2018-09-22T10:44:00.450Z,1013.77
2018-09-22T10:45:00.444Z,1013.74
2018-09-22T10:46:00.482Z,1013.76
2018-09-22T10:47:00.418Z,1013.74
2018-09-22T10:48:00.529Z,1013.75
2018-09-22T10:49:00.469Z,1013.79
2018-09-22T10:50:00.423Z,1013.77
2018-09-22T10:51:00.450Z,1013.80
2018-09-22T10:52:00.389Z,1013.78
2018-09-22T10:53:00.389Z,1013.79
2018-09-22T10:54:00.344Z,1013.73
2018-09-22T10:55:00.331Z,1013.70
2018-09-22T10:56:00.323Z,1013.65
2018-09-22T10:57:00.346Z,1013.63
2018-09-22T10:58:00.318Z,1013.62
2018-09-22T10:59:00.398Z,1013.58
2018-09-22T11:00:00.294Z,1013.57
2018-09-22T11:01:00.328Z,1013.51
2018-09-22T11:02:00.281Z,1013.53
2018-09-22T11:03:00.334Z,1013.54
2018-09-22T11:04:00.264Z,1013.47
2018-09-22T11:05:00.276Z,1013.52
2018-09-22T11:06:00.214Z,1013.50
2018-09-22T11:07:00.232Z,1013.44
2018-09-22T11:08:00.192Z,1013.52
2018-09-22T11:09:00.236Z,1013.49
2018-09-22T11:10:00.228Z,1013.50
2018-09-22T11:11:00.159Z,1013.53
2018-09-22T11:12:00.258Z,1013.48
2018-09-22T11:13:00.139Z,1013.48
2018-09-22T11:14:00.132Z,1013.46
2018-09-22T11:15:00.120Z,1013.40
2018-09-22T11:16:00.139Z,1013.46
2018-09-22T11:17:00.105Z,1013.46
2018-09-22T11:18:00.186Z,1013.49
2018-09-22T11:19:00.108Z,1013.47
2018-09-22T11:20:00.064Z,1013.53
2018-09-22T11:21:00.062Z,1013.56
2018-09-22T11:22:00.089Z,1013.58
2018-09-22T11:23:00.237Z,1013.57
2018-09-22T11:24:00.052Z,1013.53
2018-09-22T11:25:00.027Z,1013.50
2018-09-22T11:26:00.011Z,1013.53
2018-09-22T11:27:00.059Z,1013.45
2018-09-22T11:28:00.000Z,1013.46
2018-09-22T11:28:59.962Z,1013.45
2018-09-22T11:29:59.950Z,1013.51
2018-09-22T11:31:00.076Z,1013.46
2018-09-22T11:31:59.947Z,1013.48
2018-09-22T11:33:00.006Z,1013.43
2018-09-22T11:33:59.946Z,1013.46
2018-09-22T11:34:59.899Z,1013.44
2018-09-22T11:35:59.892Z,1013.42
2018-09-22T11:36:59.876Z,1013.40
2018-09-22T11:37:59.911Z,1013.36
2018-09-22T11:38:59.854Z,1013.36
2018-09-22T11:39:59.841Z,1013.33
2018-09-22T11:40:59.887Z,1013.31
2018-09-22T11:41:59.819Z,1013.35
2018-09-22T11:42:59.850Z,1013.27
2018-09-22T11:43:59.820Z,1013.25
2018-09-22T11:44:59.809Z,1013.26
2018-09-22T11:45:59.774Z,1013.20
2018-09-22T11:46:59.779Z,1013.11
2018-09-22T11:47:59.780Z,1013.12
2018-09-22T11:48:59.762Z,1013.12
2018-09-22T11:49:59.732Z,1013.14
2018-09-22T11:50:59.721Z,1013.05
2018-09-22T11:51:59.712Z,1013.06
2018-09-22T11:52:59.700Z,1013.05
2018-09-22T11:53:59.715Z,1013.02
2018-09-22T11:54:59.693Z,1012.98
2018-09-22T11:55:59.751Z,1012.94
2018-09-22T11:56:59.722Z,1012.93
2018-09-22T11:57:59.659Z,1012.88
2018-09-22T11:58:59.708Z,1012.89
2018-09-22T11:59:59.638Z,1012.85
2018-09-22T12:00:59.625Z,1012.89
2018-09-22T12:01:59.621Z,1012.94
2018-09-22T12:02:59.594Z,1012.88
2018-09-22T12:03:59.590Z,1012.86
2018-09-22T12:04:59.611Z,1012.82
2018-09-22T12:05:59.613Z,1012.86